Time;durP1;ratioP1;P1;durP2;ratioP2;P2;SDS_P1;SDS_P2;PMS_P1;PMS_P2;Temp;Humidity;BMP_temperature;BMP_pressure;BME280_temperature;BME280_humidity;BME280_pressure;Samples;Min_cycle;Max_cycle;Signal;HPM_P1;HPM_P2
2021/08/10 00:01:18;;;;;;;7.68;3.13;;;;;;;;;;4989135;28;20866;-77
2021/08/10 00:03:45;;;;;;;8.98;3.78;;;;;;;;;;4980339;28;20745;-77
2021/08/10 00:06:12;;;;;;;9.25;2.60;;;;;;;;;;4981036;28;20164;-78
2021/08/10 00:08:39;;;;;;;9.30;3.13;;;;;;;;;;4992567;28;20447;-78
2021/08/10 00:11:07;;;;;;;9.23;2.65;;;;;;;;;;4992913;28;20182;-77
2021/08/10 00:13:34;;;;;;;16.75;3.70;;;;;;;;;;4993198;28;20046;-77
2021/08/10 00:16:01;;;;;;;10.32;2.78;;;;;;;;;;4997251;28;20034;-77
2021/08/10 00:18:28;;;;;;;11.57;3.42;;;;;;;;;;4999861;28;20053;-77
2021/08/10 00:20:55;;;;;;;12.75;3.03;;;;;;;;;;5008502;28;20127;-77
2021/08/10 00:23:23;;;;;;;10.52;3.42;;;;;;;;;;4992677;28;20042;-77
2021/08/10 00:25:50;;;;;;;6.93;2.30;;;;;;;;;;4989655;28;20484;-78
2021/08/10 00:28:17;;;;;;;11.18;2.70;;;;;;;;;;4993296;28;20050;-78
2021/08/10 00:30:45;;;;;;;9.88;2.45;;;;;;;;;;4994527;28;20023;-77
2021/08/10 00:33:12;;;;;;;6.95;2.22;;;;;;;;;;4992670;28;20519;-78
2021/08/10 00:35:40;;;;;;;6.85;2.30;;;;;;;;;;4990934;28;20031;-78
2021/08/10 00:38:07;;;;;;;7.78;2.00;;;;;;;;;;4992422;28;20492;-77
2021/08/10 00:40:34;;;;;;;6.47;1.70;;;;;;;;;;4994876;28;20047;-77
2021/08/10 00:43:01;;;;;;;5.70;1.90;;;;;;;;;;4988541;28;20038;-76
2021/08/10 00:45:28;;;;;;;7.32;1.70;;;;;;;;;;4993748;28;20038;-76
2021/08/10 00:47:55;;;;;;;6.10;1.45;;;;;;;;;;4992953;28;20540;-77
2021/08/10 00:50:22;;;;;;;3.13;1.48;;;;;;;;;;4993910;28;20047;-78
2021/08/10 00:52:49;;;;;;;7.28;1.55;;;;;;;;;;4992565;28;20117;-77
2021/08/10 00:55:17;;;;;;;3.58;1.10;;;;;;;;;;4994453;28;20491;-77
2021/08/10 00:57:44;;;;;;;6.07;1.52;;;;;;;;;;4992195;28;20093;-77
2021/08/10 01:00:11;;;;;;;3.72;1.00;;;;;;;;;;4988430;28;20042;-78
2021/08/10 01:02:39;;;;;;;4.57;0.90;;;;;;;;;;4986815;28;20049;-78
2021/08/10 01:05:06;;;;;;;4.78;1.10;;;;;;;;;;4994171;28;20049;-77
2021/08/10 01:07:33;;;;;;;6.00;1.25;;;;;;;;;;4992473;28;20081;-77
2021/08/10 01:10:03;;;;;;;4.70;1.10;;;;;;;;;;4994321;28;20038;-76
2021/08/10 01:12:59;;;;;;;5.18;1.23;;;;;;;;;;4989668;28;20476;-78
2021/08/10 01:15:31;;;;;;;5.60;1.30;;;;;;;;;;4955959;28;20113;-79
2021/08/10 01:18:14;;;;;;;3.00;1.50;;;;;;;;;;4991984;28;20050;-77
2021/08/10 01:20:49;;;;;;;5.68;0.80;;;;;;;;;;4993861;28;20061;-78
2021/08/10 06:32:18;;;;;;;3.20;1.10;;;;;;;;;;4966043;28;20137;-81
2021/08/10 06:34:45;;;;;;;3.28;0.90;;;;;;;;;;5006494;28;20034;-81
2021/08/10 06:37:12;;;;;;;5.53;0.82;;;;;;;;;;4989974;28;20047;-80
2021/08/10 06:39:39;;;;;;;4.30;1.50;;;;;;;;;;4990216;28;20137;-81
2021/08/10 06:42:07;;;;;;;5.13;0.82;;;;;;;;;;4993231;28;20030;-80
2021/08/10 06:44:34;;;;;;;3.95;1.10;;;;;;;;;;4991285;28;20508;-82
2021/08/10 06:47:01;;;;;;;6.45;1.52;;;;;;;;;;4990748;28;20081;-77
2021/08/10 06:49:28;;;;;;;4.78;1.13;;;;;;;;;;4981637;28;20031;-79
2021/08/10 06:51:55;;;;;;;4.63;1.23;;;;;;;;;;4974876;28;20057;-78
2021/08/10 06:54:22;;;;;;;2.67;0.85;;;;;;;;;;4990366;28;20402;-78
2021/08/10 06:56:50;;;;;;;4.50;1.15;;;;;;;;;;4991163;28;20061;-76
2021/08/10 06:59:17;;;;;;;4.90;1.00;;;;;;;;;;4987423;28;20057;-76
2021/08/10 07:01:44;;;;;;;7.55;1.30;;;;;;;;;;4991191;28;20396;-75
2021/08/10 07:04:11;;;;;;;6.38;1.42;;;;;;;;;;4988066;28;20065;-75
2021/08/10 07:06:38;;;;;;;2.80;0.88;;;;;;;;;;4989282;28;20058;-76
2021/08/10 07:09:06;;;;;;;4.55;1.08;;;;;;;;;;4987961;28;20053;-76
2021/08/10 07:11:34;;;;;;;4.03;1.00;;;;;;;;;;4991520;28;20507;-76
2021/08/10 07:14:01;;;;;;;4.70;1.08;;;;;;;;;;4986112;28;20737;-76
2021/08/10 07:16:30;;;;;;;3.78;0.82;;;;;;;;;;4990986;28;20520;-77
2021/08/10 07:18:57;;;;;;;5.00;1.00;;;;;;;;;;4984751;28;20058;-76
2021/08/10 07:21:25;;;;;;;5.38;1.10;;;;;;;;;;4991540;28;20405;-76
2021/08/10 07:23:52;;;;;;;3.22;1.25;;;;;;;;;;4990119;28;20042;-77
2021/08/10 07:26:19;;;;;;;7.25;1.38;;;;;;;;;;4987192;28;20045;-76
2021/08/10 07:28:46;;;;;;;4.20;1.35;;;;;;;;;;4989096;28;20506;-77
2021/08/10 07:31:13;;;;;;;7.30;1.70;;;;;;;;;;4991494;28;20092;-76
2021/08/10 07:33:41;;;;;;;7.10;1.73;;;;;;;;;;4984881;28;20093;-76
2021/08/10 07:36:08;;;;;;;7.35;1.63;;;;;;;;;;4980670;28;20108;-75
2021/08/10 07:38:35;;;;;;;10.57;1.75;;;;;;;;;;4992534;28;20042;-76
2021/08/10 07:41:02;;;;;;;4.82;1.23;;;;;;;;;;4993221;28;20041;-76
2021/08/10 07:43:29;;;;;;;7.30;1.73;;;;;;;;;;4992451;28;20124;-76
2021/08/10 07:45:56;;;;;;;8.05;1.50;;;;;;;;;;4994386;28;20368;-75
2021/08/10 07:48:23;;;;;;;8.85;2.45;;;;;;;;;;4992169;28;20342;-80
2021/08/10 07:50:51;;;;;;;8.43;1.58;;;;;;;;;;4993618;28;20030;-79
2021/08/10 07:53:21;;;;;;;8.65;2.35;;;;;;;;;;4992894;28;20133;-80
2021/08/10 07:55:49;;;;;;;8.52;2.00;;;;;;;;;;4994112;28;20520;-79
2021/08/10 07:58:16;;;;;;;12.88;2.15;;;;;;;;;;4990948;28;20137;-79
2021/08/10 08:00:44;;;;;;;10.20;2.28;;;;;;;;;;4994203;28;20031;-79
2021/08/10 08:03:11;;;;;;;9.38;2.20;;;;;;;;;;4990180;28;20104;-79
2021/08/10 08:05:38;;;;;;;6.82;2.00;;;;;;;;;;4993912;28;20034;-79
2021/08/10 08:08:06;;;;;;;10.18;3.13;;;;;;;;;;4991755;28;20043;-79
2021/08/10 08:10:33;;;;;;;10.65;2.88;;;;;;;;;;4986412;28;20543;-78
2021/08/10 08:13:00;;;;;;;10.18;3.00;;;;;;;;;;4991840;28;20034;-80
2021/08/10 08:15:27;;;;;;;9.98;2.65;;;;;;;;;;4991798;28;20558;-80
2021/08/10 08:17:54;;;;;;;7.40;1.77;;;;;;;;;;4991272;28;20104;-78
2021/08/10 08:20:21;;;;;;;10.73;2.10;;;;;;;;;;4989977;28;20510;-79
2021/08/10 08:22:48;;;;;;;10.88;2.85;;;;;;;;;;4989767;28;20091;-79
2021/08/10 08:25:16;;;;;;;11.45;2.22;;;;;;;;;;4989404;28;20042;-78
2021/08/10 08:27:43;;;;;;;8.13;2.05;;;;;;;;;;4988752;28;20035;-80
2021/08/10 08:30:10;;;;;;;5.28;2.15;;;;;;;;;;4991888;28;20027;-78
2021/08/10 08:32:38;;;;;;;10.10;3.00;;;;;;;;;;4988763;28;20039;-78
2021/08/10 08:35:05;;;;;;;8.30;2.25;;;;;;;;;;4994637;28;20058;-78
2021/08/10 08:37:34;;;;;;;10.85;3.60;;;;;;;;;;4989858;28;20113;-78
2021/08/10 08:40:01;;;;;;;7.53;2.33;;;;;;;;;;4990926;28;20042;-78
2021/08/10 08:42:28;;;;;;;12.70;2.92;;;;;;;;;;4991827;28;20068;-78
2021/08/10 08:44:55;;;;;;;13.50;3.40;;;;;;;;;;4993173;28;20038;-78
2021/08/10 08:47:23;;;;;;;13.48;3.20;;;;;;;;;;4991731;28;20077;-78
2021/08/10 08:49:50;;;;;;;11.98;2.80;;;;;;;;;;4993003;28;20041;-78
2021/08/10 08:52:18;;;;;;;9.07;3.15;;;;;;;;;;4991779;28;20043;-78
2021/08/10 08:54:45;;;;;;;10.85;2.72;;;;;;;;;;4992989;28;20030;-78
2021/08/10 08:57:12;;;;;;;10.25;3.10;;;;;;;;;;4990944;28;20109;-78
2021/08/10 08:59:43;;;;;;;11.48;3.08;;;;;;;;;;4990134;28;20050;-78
2021/08/10 09:02:17;;;;;;;11.02;2.97;;;;;;;;;;4988090;28;20042;-77
2021/08/10 09:04:45;;;;;;;12.45;3.33;;;;;;;;;;4989255;28;20038;-78
2021/08/10 09:07:12;;;;;;;10.60;2.58;;;;;;;;;;4987220;28;20050;-78
2021/08/10 09:09:39;;;;;;;11.77;3.35;;;;;;;;;;4992007;28;20451;-78
2021/08/10 09:12:11;;;;;;;10.90;3.10;;;;;;;;;;4992705;28;20030;-77
2021/08/10 09:14:51;;;;;;;10.77;2.92;;;;;;;;;;4990830;28;20034;-78
2021/08/10 09:17:20;;;;;;;8.30;2.92;;;;;;;;;;4986038;28;20042;-77
2021/08/10 09:19:51;;;;;;;11.00;2.72;;;;;;;;;;4988525;28;20057;-77
2021/08/10 09:22:23;;;;;;;12.00;3.40;;;;;;;;;;4986017;28;20492;-77
2021/08/10 09:24:52;;;;;;;8.65;3.65;;;;;;;;;;4989242;28;20073;-78
2021/08/10 09:27:30;;;;;;;9.57;2.95;;;;;;;;;;4989540;28;20041;-78
2021/08/10 09:29:59;;;;;;;10.48;3.72;;;;;;;;;;4993617;28;20032;-79
2021/08/10 09:32:26;;;;;;;11.20;3.83;;;;;;;;;;4991199;28;20038;-79
2021/08/10 09:35:08;;;;;;;6.35;3.17;;;;;;;;;;4993363;28;20105;-79
2021/08/10 09:37:35;;;;;;;12.02;3.92;;;;;;;;;;4989798;28;20045;-78
2021/08/10 09:40:22;;;;;;;8.27;2.38;;;;;;;;;;4989021;28;20386;-80
2021/08/10 09:42:49;;;;;;;10.93;2.65;;;;;;;;;;4984912;28;20053;-79
2021/08/10 09:45:17;;;;;;;8.90;3.20;;;;;;;;;;4989393;28;20496;-79
2021/08/10 09:47:44;;;;;;;8.10;2.97;;;;;;;;;;4988348;28;20093;-79
2021/08/10 09:50:18;;;;;;;7.13;1.95;;;;;;;;;;4988295;28;20358;-79
2021/08/10 09:52:46;;;;;;;10.23;3.10;;;;;;;;;;4985681;28;20046;-78
2021/08/10 09:55:14;;;;;;;8.85;2.80;;;;;;;;;;4990681;28;20408;-78
2021/08/10 09:57:44;;;;;;;9.35;2.60;;;;;;;;;;4989235;28;20076;-80
2021/08/10 10:00:12;;;;;;;6.75;2.00;;;;;;;;;;4991586;28;20196;-79
2021/08/10 10:02:39;;;;;;;10.40;3.08;;;;;;;;;;4987851;28;20488;-80
2021/08/10 10:05:06;;;;;;;6.13;1.65;;;;;;;;;;4990774;28;20117;-79
2021/08/10 10:07:33;;;;;;;7.53;2.08;;;;;;;;;;4990443;28;20031;-79
2021/08/10 10:10:01;;;;;;;6.28;2.10;;;;;;;;;;5005013;28;20484;-79
2021/08/10 10:12:28;;;;;;;5.90;1.83;;;;;;;;;;4992587;28;20034;-79
2021/08/10 10:14:59;;;;;;;8.60;2.90;;;;;;;;;;4991783;28;20089;-79
2021/08/10 10:17:27;;;;;;;7.95;2.42;;;;;;;;;;4981941;28;20412;-77
2021/08/10 10:19:55;;;;;;;8.23;2.20;;;;;;;;;;4987458;28;20037;-78
2021/08/10 10:22:22;;;;;;;7.07;1.95;;;;;;;;;;4994959;28;20476;-79
2021/08/10 10:24:52;;;;;;;9.57;2.55;;;;;;;;;;4992953;28;20046;-79
2021/08/10 10:27:20;;;;;;;6.97;1.88;;;;;;;;;;4993664;28;20038;-79
2021/08/10 10:29:48;;;;;;;4.95;1.80;;;;;;;;;;4995579;28;20066;-79
2021/08/10 10:32:18;;;;;;;7.78;1.50;;;;;;;;;;4995295;28;20035;-79
2021/08/10 10:34:46;;;;;;;5.45;1.70;;;;;;;;;;4994815;28;20056;-79
2021/08/10 10:37:13;;;;;;;8.02;1.98;;;;;;;;;;4992431;28;20049;-79
2021/08/10 10:39:41;;;;;;;9.05;2.03;;;;;;;;;;4992291;28;20061;-80
2021/08/10 10:42:13;;;;;;;8.45;1.70;;;;;;;;;;4992367;28;20034;-80
2021/08/10 10:44:41;;;;;;;7.22;2.25;;;;;;;;;;4992382;28;20180;-80
2021/08/10 10:47:24;;;;;;;5.45;1.48;;;;;;;;;;4991889;28;20042;-78
2021/08/10 10:50:11;;;;;;;4.90;1.92;;;;;;;;;;4991784;28;20050;-80
2021/08/10 10:52:38;;;;;;;4.40;1.55;;;;;;;;;;4991879;28;20041;-78
2021/08/10 10:55:06;;;;;;;6.93;2.00;;;;;;;;;;4991289;28;20087;-78
2021/08/10 10:57:33;;;;;;;4.50;2.13;;;;;;;;;;4991382;28;20081;-78
2021/08/10 11:00:03;;;;;;;9.80;1.80;;;;;;;;;;4991695;28;20041;-79
2021/08/10 11:02:31;;;;;;;6.28;2.00;;;;;;;;;;4991852;28;20038;-80
2021/08/10 11:05:28;;;;;;;7.07;1.60;;;;;;;;;;4989193;28;20081;-79
2021/08/10 11:07:55;;;;;;;5.75;1.60;;;;;;;;;;4991371;28;20039;-79
2021/08/10 11:10:38;;;;;;;5.22;1.90;;;;;;;;;;4986958;28;20098;-79
2021/08/10 11:13:06;;;;;;;8.43;2.83;;;;;;;;;;4992797;28;20224;-79
2021/08/10 11:15:45;;;;;;;6.18;1.73;;;;;;;;;;4993866;28;20394;-80
2021/08/10 11:18:12;;;;;;;9.18;1.50;;;;;;;;;;4994479;28;20053;-78
2021/08/10 11:20:44;;;;;;;8.65;1.98;;;;;;;;;;4991892;28;20025;-80
2021/08/10 11:23:21;;;;;;;7.25;1.98;;;;;;;;;;4995668;28;20073;-79
2021/08/10 11:25:49;;;;;;;4.50;1.90;;;;;;;;;;4994150;28;20464;-79
2021/08/10 11:28:29;;;;;;;7.00;2.70;;;;;;;;;;4995214;28;20066;-80
2021/08/10 11:30:57;;;;;;;5.32;1.52;;;;;;;;;;4996257;28;20030;-78
2021/08/10 11:33:33;;;;;;;11.40;2.72;;;;;;;;;;4995425;28;20050;-79
2021/08/10 11:36:12;;;;;;;7.93;1.80;;;;;;;;;;4988211;28;20034;-80
2021/08/10 11:38:47;;;;;;;6.18;1.60;;;;;;;;;;4986027;28;20054;-80
2021/08/10 11:41:15;;;;;;;4.40;1.15;;;;;;;;;;4990838;28;20042;-78
2021/08/10 11:43:46;;;;;;;6.63;1.52;;;;;;;;;;4987968;28;20125;-79
2021/08/10 11:46:22;;;;;;;6.55;1.58;;;;;;;;;;4993495;28;20035;-80
2021/08/10 11:48:50;;;;;;;4.63;1.40;;;;;;;;;;5004794;28;20042;-79
2021/08/10 11:51:23;;;;;;;2.78;1.17;;;;;;;;;;4993489;28;20125;-78
2021/08/10 11:53:51;;;;;;;5.22;1.73;;;;;;;;;;4990126;28;20436;-79
2021/08/10 11:56:37;;;;;;;7.50;1.40;;;;;;;;;;4991963;28;20369;-78
2021/08/10 11:59:06;;;;;;;3.75;1.38;;;;;;;;;;4992086;28;20518;-78
2021/08/10 12:01:37;;;;;;;5.95;1.90;;;;;;;;;;4993656;28;20038;-79
2021/08/10 12:04:10;;;;;;;6.22;1.50;;;;;;;;;;4987957;28;20037;-79
2021/08/10 12:06:37;;;;;;;4.10;1.63;;;;;;;;;;4991200;28;20109;-79
2021/08/10 12:09:05;;;;;;;5.53;1.73;;;;;;;;;;4989380;28;20089;-79
2021/08/10 12:11:33;;;;;;;5.57;1.67;;;;;;;;;;4994181;28;20041;-79
2021/08/10 12:14:13;;;;;;;6.97;2.28;;;;;;;;;;4988073;28;20097;-79
2021/08/10 12:16:57;;;;;;;5.03;1.42;;;;;;;;;;4992542;28;20377;-78
2021/08/10 12:19:31;;;;;;;7.50;1.63;;;;;;;;;;4992533;28;20547;-79
2021/08/10 12:21:59;;;;;;;2.83;1.30;;;;;;;;;;4986454;28;20027;-79
2021/08/10 12:24:31;;;;;;;3.05;1.23;;;;;;;;;;4994053;28;20034;-79
2021/08/10 12:26:58;;;;;;;2.75;1.23;;;;;;;;;;4989554;28;20736;-79
2021/08/10 12:29:34;;;;;;;7.70;1.35;;;;;;;;;;4993204;28;20050;-79
2021/08/10 12:32:01;;;;;;;3.65;1.42;;;;;;;;;;4989315;28;20378;-78
2021/08/10 12:34:30;;;;;;;4.68;2.08;;;;;;;;;;4991251;28;20054;-80
2021/08/10 12:36:57;;;;;;;6.13;1.52;;;;;;;;;;4985024;28;20035;-79
2021/08/10 12:39:24;;;;;;;5.07;1.50;;;;;;;;;;4993151;28;20141;-78
2021/08/10 12:41:52;;;;;;;3.58;1.23;;;;;;;;;;4992300;28;20444;-78
2021/08/10 12:44:23;;;;;;;6.63;1.83;;;;;;;;;;4991744;28;20049;-79
2021/08/10 12:46:54;;;;;;;5.72;1.67;;;;;;;;;;4991041;28;20077;-78
2021/08/10 12:49:33;;;;;;;5.53;2.15;;;;;;;;;;4993013;28;20126;-78
2021/08/10 12:52:04;;;;;;;6.53;1.83;;;;;;;;;;4992498;28;20047;-78
2021/08/10 12:54:39;;;;;;;6.25;2.05;;;;;;;;;;4989758;28;20038;-79
2021/08/10 12:57:19;;;;;;;4.63;1.67;;;;;;;;;;4991300;28;20045;-79
2021/08/10 12:59:51;;;;;;;5.72;1.67;;;;;;;;;;4989834;28;20128;-78
2021/08/10 13:02:34;;;;;;;7.35;1.70;;;;;;;;;;4991830;28;20473;-78
2021/08/10 13:07:27;;;;;;;8.02;1.80;;;;;;;;;;4984864;28;20496;-79
2021/08/10 13:09:55;;;;;;;3.40;1.60;;;;;;;;;;4987296;28;20121;-79
2021/08/10 13:12:23;;;;;;;7.25;2.40;;;;;;;;;;4989880;28;20060;-79
2021/08/10 13:14:56;;;;;;;3.35;1.85;;;;;;;;;;4991216;28;20077;-78
2021/08/10 13:17:33;;;;;;;4.82;1.60;;;;;;;;;;4988163;28;21058;-78
2021/08/10 13:20:03;;;;;;;5.28;2.53;;;;;;;;;;4992929;28;20050;-79
2021/08/10 13:22:47;;;;;;;3.95;1.83;;;;;;;;;;4988685;28;20045;-79
2021/08/10 13:25:24;;;;;;;5.63;2.08;;;;;;;;;;4987985;28;20476;-79
2021/08/10 13:27:52;;;;;;;7.32;2.05;;;;;;;;;;4989686;28;20097;-79
2021/08/10 13:30:24;;;;;;;6.50;2.58;;;;;;;;;;4992256;28;20038;-79
2021/08/10 13:33:08;;;;;;;7.50;1.90;;;;;;;;;;4989925;28;20045;-79
2021/08/10 13:35:36;;;;;;;7.13;2.13;;;;;;;;;;4985697;28;20034;-79
2021/08/10 13:38:04;;;;;;;6.07;2.15;;;;;;;;;;4991278;28;20287;-78
2021/08/10 13:40:32;;;;;;;6.18;1.98;;;;;;;;;;4992053;28;20500;-79
2021/08/10 13:43:00;;;;;;;5.40;1.40;;;;;;;;;;4985960;28;20039;-78
2021/08/10 13:45:29;;;;;;;6.72;1.70;;;;;;;;;;4992143;28;20093;-79
2021/08/10 13:47:57;;;;;;;6.07;1.77;;;;;;;;;;4984578;28;20396;-79
2021/08/10 13:50:25;;;;;;;4.72;2.17;;;;;;;;;;4993043;28;20045;-79
2021/08/10 13:52:52;;;;;;;7.45;1.83;;;;;;;;;;4990443;28;20137;-78
2021/08/10 13:55:19;;;;;;;8.00;2.92;;;;;;;;;;4991303;28;20377;-79
2021/08/10 13:57:49;;;;;;;9.15;2.38;;;;;;;;;;4989473;28;20395;-79
2021/08/10 14:00:16;;;;;;;6.35;1.95;;;;;;;;;;4992047;28;20050;-79
2021/08/10 14:02:44;;;;;;;4.50;1.70;;;;;;;;;;4990254;28;20042;-79
2021/08/10 14:05:12;;;;;;;6.90;2.10;;;;;;;;;;4991019;28;20076;-79
2021/08/10 14:07:39;;;;;;;3.67;2.28;;;;;;;;;;4987622;28;20101;-79
2021/08/10 14:10:08;;;;;;;6.22;2.08;;;;;;;;;;4990752;28;20030;-78
2021/08/10 14:12:35;;;;;;;8.65;2.10;;;;;;;;;;4990838;28;20093;-80
2021/08/10 14:15:03;;;;;;;10.80;1.92;;;;;;;;;;4989295;28;20084;-79
2021/08/10 14:17:30;;;;;;;7.22;2.13;;;;;;;;;;4988925;28;20046;-78
2021/08/10 14:19:57;;;;;;;5.85;1.85;;;;;;;;;;4984381;28;20097;-79
2021/08/10 14:22:25;;;;;;;5.30;1.67;;;;;;;;;;4986371;28;20039;-79
2021/08/10 14:24:53;;;;;;;6.13;2.10;;;;;;;;;;4991773;28;20488;-78
2021/08/10 14:27:20;;;;;;;5.38;1.70;;;;;;;;;;4987752;28;20035;-79
2021/08/10 14:29:48;;;;;;;6.82;1.88;;;;;;;;;;4992747;28;20073;-79
2021/08/10 14:32:15;;;;;;;9.60;2.63;;;;;;;;;;4990105;28;20393;-79
2021/08/10 14:34:42;;;;;;;7.22;2.40;;;;;;;;;;4987952;28;20049;-79
2021/08/10 14:37:09;;;;;;;8.68;1.80;;;;;;;;;;4989486;28;20084;-79
2021/08/10 14:39:36;;;;;;;5.13;1.50;;;;;;;;;;4991859;28;20121;-79
2021/08/10 14:42:03;;;;;;;5.78;1.80;;;;;;;;;;4990227;28;20038;-78
2021/08/10 14:44:30;;;;;;;7.32;2.13;;;;;;;;;;4989158;28;20031;-79
2021/08/10 14:47:00;;;;;;;6.60;2.03;;;;;;;;;;4990143;28;20096;-79
2021/08/10 14:49:27;;;;;;;3.33;2.08;;;;;;;;;;4991153;28;20185;-78
2021/08/10 14:51:55;;;;;;;6.72;1.98;;;;;;;;;;4990947;28;20054;-79
2021/08/10 14:54:22;;;;;;;9.02;2.38;;;;;;;;;;4990856;28;20181;-79
2021/08/10 14:56:49;;;;;;;10.07;2.17;;;;;;;;;;4991186;28;20066;-79
2021/08/10 14:59:16;;;;;;;9.00;1.98;;;;;;;;;;4990477;28;20126;-78
2021/08/10 15:01:43;;;;;;;8.02;1.70;;;;;;;;;;4989874;28;20519;-79
2021/08/10 15:04:10;;;;;;;14.52;2.63;;;;;;;;;;4985872;28;20105;-78
2021/08/10 15:06:37;;;;;;;7.20;2.03;;;;;;;;;;4990037;28;20212;-78
2021/08/10 15:09:05;;;;;;;6.43;2.10;;;;;;;;;;4990801;28;20105;-78
2021/08/10 15:11:32;;;;;;;8.07;2.22;;;;;;;;;;4988761;28;20043;-79
2021/08/10 15:13:59;;;;;;;6.10;1.90;;;;;;;;;;4988250;28;20038;-78
2021/08/10 15:16:26;;;;;;;5.28;2.20;;;;;;;;;;4982212;28;20344;-78
2021/08/10 15:18:53;;;;;;;5.90;2.45;;;;;;;;;;4987893;28;20042;-79
2021/08/10 15:21:20;;;;;;;5.18;1.83;;;;;;;;;;4991158;28;20497;-77
2021/08/10 15:23:47;;;;;;;4.45;1.40;;;;;;;;;;4988629;28;20133;-78
2021/08/10 15:26:15;;;;;;;11.38;2.38;;;;;;;;;;4990676;28;20038;-79
2021/08/10 15:28:42;;;;;;;3.63;1.23;;;;;;;;;;4988127;28;20065;-79
2021/08/10 15:31:09;;;;;;;5.50;1.48;;;;;;;;;;4986736;28;20043;-79
2021/08/10 15:33:36;;;;;;;6.40;1.70;;;;;;;;;;4988771;28;20559;-78
2021/08/10 15:36:03;;;;;;;6.57;1.52;;;;;;;;;;4990967;28;20038;-79
2021/08/10 15:38:30;;;;;;;5.68;2.22;;;;;;;;;;4989306;28;20053;-79
2021/08/10 15:40:58;;;;;;;5.35;1.67;;;;;;;;;;4988748;28;20173;-79
2021/08/10 15:43:25;;;;;;;6.10;1.50;;;;;;;;;;4988812;28;20045;-78
2021/08/10 15:45:52;;;;;;;5.28;1.83;;;;;;;;;;4991527;28;20096;-78
2021/08/10 15:48:19;;;;;;;5.72;1.35;;;;;;;;;;4987358;28;20047;-79
2021/08/10 15:50:46;;;;;;;6.15;2.03;;;;;;;;;;4988755;28;20494;-79
2021/08/10 15:53:14;;;;;;;5.90;1.77;;;;;;;;;;4989401;28;20047;-78
2021/08/10 15:55:41;;;;;;;5.90;1.85;;;;;;;;;;4992925;28;20060;-79
2021/08/10 15:58:09;;;;;;;6.60;1.63;;;;;;;;;;4989609;28;20045;-78
2021/08/10 16:00:37;;;;;;;4.30;2.08;;;;;;;;;;4993296;28;20492;-78
2021/08/10 16:03:08;;;;;;;6.40;1.60;;;;;;;;;;4993924;28;20042;-78
2021/08/10 16:05:38;;;;;;;9.40;3.10;;;;;;;;;;4995019;28;20036;-78
2021/08/10 16:08:06;;;;;;;4.55;1.77;;;;;;;;;;4993233;28;20030;-78
2021/08/10 16:10:37;;;;;;;3.70;1.38;;;;;;;;;;4994667;28;20038;-78
2021/08/10 16:13:04;;;;;;;6.55;1.77;;;;;;;;;;4992342;28;20034;-80
2021/08/10 16:15:33;;;;;;;4.68;1.63;;;;;;;;;;4992570;28;20038;-78
2021/08/10 16:18:00;;;;;;;7.18;2.53;;;;;;;;;;4992731;28;20451;-78
2021/08/10 16:20:27;;;;;;;4.97;1.85;;;;;;;;;;4991317;28;20096;-78
2021/08/10 16:22:54;;;;;;;4.97;1.40;;;;;;;;;;4986525;28;20026;-78
2021/08/10 16:25:22;;;;;;;4.95;1.67;;;;;;;;;;4991195;28;20104;-79
2021/08/10 16:27:49;;;;;;;6.90;2.28;;;;;;;;;;4991392;28;20092;-79
2021/08/10 16:30:16;;;;;;;7.13;2.10;;;;;;;;;;4994152;28;20038;-79
2021/08/10 16:32:43;;;;;;;5.88;1.67;;;;;;;;;;4976782;28;20053;-79
2021/08/10 16:35:10;;;;;;;6.53;1.70;;;;;;;;;;4993250;28;20034;-78
2021/08/10 16:37:38;;;;;;;7.93;1.88;;;;;;;;;;4991406;28;20045;-79
2021/08/10 16:40:06;;;;;;;3.55;1.60;;;;;;;;;;4994310;28;20066;-78
2021/08/10 16:42:33;;;;;;;6.60;1.35;;;;;;;;;;4992596;28;20030;-78
2021/08/10 16:45:00;;;;;;;4.93;1.75;;;;;;;;;;4994164;28;20037;-79
2021/08/10 16:47:27;;;;;;;5.28;1.70;;;;;;;;;;4992602;28;20109;-79
2021/08/10 16:49:54;;;;;;;4.78;1.90;;;;;;;;;;4995061;28;20061;-78
2021/08/10 17:43:24;;;;;;;6.00;1.25;;;;;;;;;;4969826;28;20084;-79
2021/08/10 17:45:51;;;;;;;5.88;1.20;;;;;;;;;;4990270;28;20038;-78
2021/08/10 17:48:18;;;;;;;2.60;0.70;;;;;;;;;;4986982;28;20032;-79
2021/08/10 17:50:45;;;;;;;4.47;1.10;;;;;;;;;;4986445;28;20034;-79
2021/08/10 17:53:17;;;;;;;2.15;0.80;;;;;;;;;;4992351;28;20046;-79
2021/08/10 17:55:44;;;;;;;4.20;0.80;;;;;;;;;;4994197;28;20455;-78
2021/08/10 17:58:11;;;;;;;5.32;0.93;;;;;;;;;;4993236;28;20042;-79
2021/08/10 18:00:43;;;;;;;6.38;1.00;;;;;;;;;;4992493;28;20042;-77
2021/08/10 18:03:10;;;;;;;4.40;1.23;;;;;;;;;;4987008;28;20035;-78
2021/08/10 18:05:37;;;;;;;4.90;0.82;;;;;;;;;;4993030;28;20057;-78
2021/08/10 18:08:04;;;;;;;4.68;1.00;;;;;;;;;;4992905;28;20122;-79
2021/08/10 18:10:31;;;;;;;2.97;1.02;;;;;;;;;;4992558;28;20030;-79
2021/08/10 18:12:59;;;;;;;1.88;0.70;;;;;;;;;;4992814;28;20053;-78
2021/08/10 18:15:27;;;;;;;4.43;0.90;;;;;;;;;;4993162;28;20188;-78
2021/08/10 18:17:54;;;;;;;4.30;1.15;;;;;;;;;;4990434;28;20041;-78
2021/08/10 18:20:21;;;;;;;5.70;1.05;;;;;;;;;;4996875;28;20058;-79
2021/08/10 18:22:48;;;;;;;5.28;0.80;;;;;;;;;;4993401;28;20030;-79
2021/08/10 18:25:15;;;;;;;2.85;0.70;;;;;;;;;;4995531;28;20116;-79
2021/08/10 18:27:44;;;;;;;5.85;1.00;;;;;;;;;;4996585;28;20058;-79
2021/08/10 18:30:12;;;;;;;4.85;1.20;;;;;;;;;;4997001;28;20092;-81
2021/08/10 18:32:39;;;;;;;9.00;0.95;;;;;;;;;;4995210;28;20039;-78
2021/08/10 18:35:07;;;;;;;6.32;1.60;;;;;;;;;;4995600;28;20114;-78
2021/08/10 18:37:35;;;;;;;3.47;0.90;;;;;;;;;;4993568;28;20058;-79
2021/08/10 18:40:02;;;;;;;3.42;0.80;;;;;;;;;;4992219;28;20065;-79
2021/08/10 18:42:29;;;;;;;2.70;1.15;;;;;;;;;;4991859;28;20097;-79
2021/08/10 18:44:57;;;;;;;6.00;1.30;;;;;;;;;;4994710;28;20046;-79
2021/08/10 18:47:24;;;;;;;5.18;1.17;;;;;;;;;;4990873;28;20026;-79
2021/08/10 18:49:51;;;;;;;2.00;1.00;;;;;;;;;;4992197;28;20033;-79
2021/08/10 18:52:19;;;;;;;2.80;0.90;;;;;;;;;;4990320;28;20055;-79
2021/08/10 18:54:46;;;;;;;8.65;1.23;;;;;;;;;;4989280;28;20085;-79
2021/08/10 18:57:13;;;;;;;7.95;0.93;;;;;;;;;;5000740;28;20046;-79
2021/08/10 18:59:40;;;;;;;2.92;1.08;;;;;;;;;;4992496;28;20054;-79
2021/08/10 19:02:08;;;;;;;4.10;1.50;;;;;;;;;;4986979;28;20034;-79
2021/08/10 19:04:35;;;;;;;6.68;1.13;;;;;;;;;;4991356;28;20117;-79
2021/08/10 19:07:03;;;;;;;3.83;0.98;;;;;;;;;;4989088;28;20412;-79
2021/08/10 19:09:30;;;;;;;5.72;1.20;;;;;;;;;;4985446;28;20038;-78
2021/08/10 19:11:57;;;;;;;2.15;0.63;;;;;;;;;;4990374;28;20477;-78
2021/08/10 19:14:24;;;;;;;3.25;0.75;;;;;;;;;;4990088;28;20538;-79
2021/08/10 19:16:51;;;;;;;5.25;1.77;;;;;;;;;;4991458;28;20035;-79
2021/08/10 19:19:20;;;;;;;1.67;0.70;;;;;;;;;;4991471;28;20046;-79
2021/08/10 19:21:47;;;;;;;4.45;1.23;;;;;;;;;;4991972;28;20464;-79
2021/08/10 19:24:14;;;;;;;3.72;1.00;;;;;;;;;;4989138;28;20507;-79
2021/08/10 19:26:41;;;;;;;3.60;0.80;;;;;;;;;;4989883;28;20042;-78
2021/08/10 19:29:08;;;;;;;4.40;1.10;;;;;;;;;;4989366;28;20089;-78
2021/08/10 19:31:36;;;;;;;3.95;0.82;;;;;;;;;;4992251;28;20038;-79
2021/08/10 19:34:04;;;;;;;4.72;1.48;;;;;;;;;;4991001;28;20038;-79
2021/08/10 19:36:31;;;;;;;4.55;0.88;;;;;;;;;;4993541;28;20027;-78
2021/08/10 19:38:58;;;;;;;3.60;0.90;;;;;;;;;;4994034;28;20042;-79
2021/08/10 21:14:47;;;;;;;2.33;0.95;;;;;;;;;;5009251;28;20081;-81
2021/08/10 21:17:14;;;;;;;4.45;0.70;;;;;;;;;;5010080;28;20042;-82
2021/08/10 21:19:41;;;;;;;5.93;1.45;;;;;;;;;;5013987;28;20394;-81
2021/08/10 21:22:09;;;;;;;2.15;0.70;;;;;;;;;;5008917;28;20022;-81
2021/08/10 21:24:37;;;;;;;3.38;0.70;;;;;;;;;;4993068;28;20033;-81
2021/08/10 21:27:04;;;;;;;3.80;0.70;;;;;;;;;;5011694;28;20110;-81
2021/08/10 21:29:32;;;;;;;8.13;1.55;;;;;;;;;;4996250;28;20042;-81
2021/08/10 21:31:59;;;;;;;5.15;1.00;;;;;;;;;;4994301;28;20117;-81
2021/08/10 21:34:26;;;;;;;3.25;0.75;;;;;;;;;;5012351;28;20125;-80
2021/08/10 21:36:54;;;;;;;4.28;0.90;;;;;;;;;;5012350;28;20042;-81
2021/08/10 21:39:21;;;;;;;4.28;0.85;;;;;;;;;;5010898;28;20541;-82
2021/08/10 21:41:48;;;;;;;4.10;0.60;;;;;;;;;;5011485;28;20076;-81
2021/08/10 21:44:15;;;;;;;2.83;0.80;;;;;;;;;;5012033;28;20042;-81
2021/08/10 21:46:43;;;;;;;3.15;0.93;;;;;;;;;;5011638;28;20034;-81
2021/08/10 21:49:10;;;;;;;4.15;0.90;;;;;;;;;;5008487;28;20034;-81
2021/08/10 21:51:37;;;;;;;3.78;1.50;;;;;;;;;;5012649;28;20045;-82
2021/08/10 21:54:04;;;;;;;3.63;1.13;;;;;;;;;;5007174;28;20034;-82
2021/08/10 21:56:31;;;;;;;5.13;0.80;;;;;;;;;;5011969;28;20030;-82
2021/08/10 21:58:58;;;;;;;5.00;0.95;;;;;;;;;;5010154;28;20050;-82
2021/08/10 22:01:26;;;;;;;6.30;0.60;;;;;;;;;;5012347;28;21823;-81
2021/08/10 22:03:53;;;;;;;6.30;1.52;;;;;;;;;;5008262;28;20396;-81
2021/08/10 22:06:20;;;;;;;2.60;0.60;;;;;;;;;;5010112;28;20030;-81
2021/08/10 22:08:47;;;;;;;3.50;0.60;;;;;;;;;;5000360;28;21134;-82
2021/08/10 22:11:14;;;;;;;1.95;0.50;;;;;;;;;;5009739;28;20114;-81
2021/08/10 22:13:42;;;;;;;2.28;0.65;;;;;;;;;;5005766;28;20042;-82
2021/08/10 22:16:13;;;;;;;3.72;0.70;;;;;;;;;;5007541;28;20030;-80
2021/08/10 22:18:41;;;;;;;4.60;0.88;;;;;;;;;;5007358;28;20042;-81
2021/08/10 22:21:08;;;;;;;2.00;0.80;;;;;;;;;;5006780;28;20053;-80
2021/08/10 22:23:35;;;;;;;3.05;0.73;;;;;;;;;;5005878;28;20085;-80
2021/08/10 22:26:02;;;;;;;2.67;0.68;;;;;;;;;;5007467;28;20057;-80